Time,TemperatureF,DewpointF,PressureIn,WindDirection,WindDirectionDegrees,WindSpeedMPH,WindSpeedGustMPH,Humidity,HourlyPrecipIn,Conditions,Clouds,dailyrainin,SoftwareType,DateUTC
2013-02-06 00:00:00,57.9,31.1,30.00,NW,315,12.1,12.1,36,0.00,CLR,,0.00,WeatherDisplay:10.37,2013-02-06 06:00:00,
2013-02-06 00:05:00,57.9,31.1,30.00,NW,315,11.5,11.5,36,0.00,CLR,,0.00,WeatherDisplay:10.37,2013-02-06 06:05:00,
2013-02-06 00:10:00,57.9,31.1,30.00,NW,315,12.1,12.1,36,0.00,CLR,,0.00,WeatherDisplay:10.37,2013-02-06 06:10:00,
2013-02-06 00:15:00,57.9,31.1,30.00,NW,315,11.5,11.5,36,0.00,CLR,,0.00,WeatherDisplay:10.37,2013-02-06 06:15:00,
2013-02-06 00:20:00,57.9,31.1,30.00,NW,315,11.5,11.5,36,0.00,CLR,,0.00,WeatherDisplay:10.37,2013-02-06 06:20:00,
2013-02-06 00:25:00,57.6,30.8,30.00,NW,315,11.5,11.5,36,0.00,CLR,,0.00,WeatherDisplay:10.37,2013-02-06 06:25:00,
2013-02-06 00:30:00,57.2,30.5,30.00,NW,315,12.1,12.1,36,0.00,CLR,,0.00,WeatherDisplay:10.37,2013-02-06 06:30:00,
2013-02-06 00:35:00,57.4,30.6,30.00,NW,315,11.5,11.5,36,0.00,CLR,,0.00,WeatherDisplay:10.37,2013-02-06 06:35:00,
2013-02-06 00:40:00,57.6,30.8,30.00,NW,315,12.1,12.1,36,0.00,CLR,,0.00,WeatherDisplay:10.37,2013-02-06 06:40:00,
2013-02-06 00:45:00,57.7,31.6,30.00,NW,315,12.1,12.1,37,0.00,CLR,,0.00,WeatherDisplay:10.37,2013-02-06 06:45:00,
2013-02-06 00:50:00,59.0,33.4,30.00,NW,315,11.5,11.5,38,0.00,CLR,,0.00,WeatherDisplay:10.37,2013-02-06 06:50:00,
2013-02-06 00:55:00,59.5,34.5,30.00,NW,315,11.5,11.5,39,0.00,CLR,,0.00,WeatherDisplay:10.37,2013-02-06 06:55:00,
2013-02-06 01:00:00,59.7,34.7,30.00,NW,315,12.1,12.1,39,0.00,CLR,,0.00,WeatherDisplay:10.37,2013-02-06 07:00:00,
2013-02-06 01:05:00,59.9,34.9,30.00,NW,315,11.5,11.5,39,0.00,CLR,,0.00,WeatherDisplay:10.37,2013-02-06 07:05:00,
2013-02-06 01:10:00,60.1,35.7,30.00,NW,315,12.1,12.1,40,0.00,CLR,,0.00,WeatherDisplay:10.37,2013-02-06 07:10:00,
2013-02-06 01:15:00,60.1,35.7,30.00,NW,315,11.5,11.5,40,0.00,CLR,,0.00,WeatherDisplay:10.37,2013-02-06 07:15:00,
2013-02-06 01:20:00,60.1,35.7,30.00,NW,315,12.1,12.1,40,0.00,CLR,,0.00,WeatherDisplay:10.37,2013-02-06 07:20:00,
2013-02-06 01:25:00,60.1,35.7,30.03,NW,315,11.5,11.5,40,0.00,CLR,,0.00,WeatherDisplay:10.37,2013-02-06 07:25:00,
2013-02-06 01:30:00,60.1,36.3,30.03,NW,315,12.1,12.1,41,0.00,CLR,,0.00,WeatherDisplay:10.37,2013-02-06 07:30:00,
2013-02-06 01:35:00,60.1,36.3,30.03,NW,315,12.1,12.1,41,0.00,CLR,,0.00,WeatherDisplay:10.37,2013-02-06 07:35:00,
2013-02-06 01:40:00,60.1,36.3,30.03,NW,315,11.5,11.5,41,0.00,CLR,,0.00,WeatherDisplay:10.37,2013-02-06 07:40:00,
2013-02-06 01:45:00,60.1,36.9,30.03,NW,315,11.5,11.5,42,0.00,CLR,,0.00,WeatherDisplay:10.37,2013-02-06 07:45:00,
2013-02-06 01:50:00,60.1,38.1,30.03,NW,315,12.1,12.1,44,0.00,CLR,,0.00,WeatherDisplay:10.37,2013-02-06 07:50:00,
2013-02-06 01:55:00,60.1,38.1,30.00,NW,315,11.5,11.5,44,0.00,CLR,,0.00,WeatherDisplay:10.37,2013-02-06 07:55:00,
2013-02-06 02:00:00,60.1,38.1,30.00,NW,315,11.5,11.5,44,0.00,CLR,,0.00,WeatherDisplay:10.37,2013-02-06 08:00:00,
2013-02-06 02:05:00,60.1,38.1,30.00,NW,315,12.1,12.1,44,0.00,CLR,,0.00,WeatherDisplay:10.37,2013-02-06 08:05:00,
2013-02-06 02:10:00,60.1,38.1,30.03,NW,315,12.1,12.1,44,0.00,CLR,,0.00,WeatherDisplay:10.37,2013-02-06 08:10:00,
2013-02-06 02:15:00,60.3,38.2,30.03,NW,315,11.5,11.5,44,0.00,CLR,,0.00,WeatherDisplay:10.37,2013-02-06 08:15:00,
2013-02-06 02:20:00,60.3,38.2,30.03,NW,315,12.1,12.1,44,0.00,CLR,,0.00,WeatherDisplay:10.37,2013-02-06 08:20:00,
2013-02-06 02:26:00,60.3,38.2,30.03,NW,315,11.5,11.5,44,0.00,CLR,,0.00,WeatherDisplay:10.37,2013-02-06 08:26:00,
2013-02-06 02:32:00,60.3,38.2,30.03,NW,315,12.1,12.1,44,0.00,CLR,,0.00,WeatherDisplay:10.37,2013-02-06 08:32:00,
2013-02-06 02:37:00,60.1,38.1,30.03,NW,315,12.1,12.1,44,0.00,CLR,,0.00,WeatherDisplay:10.37,2013-02-06 08:37:00,
2013-02-06 02:42:00,60.3,38.2,30.03,NW,315,11.5,11.5,44,0.00,CLR,,0.00,WeatherDisplay:10.37,2013-02-06 08:42:00,
2013-02-06 02:47:00,60.3,38.2,30.03,NW,315,11.5,11.5,44,0.00,CLR,,0.00,WeatherDisplay:10.37,2013-02-06 08:47:00,
2013-02-06 02:52:00,60.3,38.2,30.03,NW,315,11.5,11.5,44,0.00,CLR,,0.00,WeatherDisplay:10.37,2013-02-06 08:52:00,
2013-02-06 02:57:00,60.1,38.1,30.03,NW,315,11.5,11.5,44,0.00,CLR,,0.00,WeatherDisplay:10.37,2013-02-06 08:57:00,
2013-02-06 03:02:00,60.1,38.1,30.03,NW,315,11.5,11.5,44,0.00,CLR,,0.00,WeatherDisplay:10.37,2013-02-06 09:02:00,
2013-02-06 03:07:00,59.9,37.3,30.03,NW,315,11.5,11.5,43,0.00,CLR,,0.00,WeatherDisplay:10.37,2013-02-06 09:07:00,
2013-02-06 03:12:00,59.9,37.3,30.03,NW,315,11.5,11.5,43,0.00,CLR,,0.00,WeatherDisplay:10.37,2013-02-06 09:12:00,
2013-02-06 03:17:00,59.9,37.3,30.03,NW,315,11.5,11.5,43,0.00,CLR,,0.00,WeatherDisplay:10.37,2013-02-06 09:17:00,
2013-02-06 03:22:00,59.9,37.3,30.03,NW,315,11.5,11.5,43,0.00,CLR,,0.00,WeatherDisplay:10.37,2013-02-06 09:22:00,
2013-02-06 03:27:00,59.2,36.1,30.03,NW,315,12.1,12.1,42,0.00,CLR,,0.00,WeatherDisplay:10.37,2013-02-06 09:27:00,
2013-02-06 03:32:00,59.0,35.3,30.03,NW,315,11.5,11.5,41,0.00,CLR,,0.00,WeatherDisplay:10.37,2013-02-06 09:32:00,
2013-02-06 03:37:00,58.8,35.2,30.03,NW,315,12.1,12.1,41,0.00,CLR,,0.00,WeatherDisplay:10.37,2013-02-06 09:37:00,
2013-02-06 03:42:00,58.5,34.8,30.00,NW,315,12.1,12.1,41,0.00,CLR,,0.00,WeatherDisplay:10.37,2013-02-06 09:42:00,
2013-02-06 03:47:00,58.5,35.4,30.00,NW,315,11.5,11.5,42,0.00,CLR,,0.00,WeatherDisplay:10.37,2013-02-06 09:47:00,
2013-02-06 03:52:00,58.3,35.3,30.00,NW,315,12.1,12.1,42,0.00,CLR,,0.00,WeatherDisplay:10.37,2013-02-06 09:52:00,
2013-02-06 03:57:00,58.1,35.1,30.00,NW,315,12.1,12.1,42,0.00,CLR,,0.00,WeatherDisplay:10.37,2013-02-06 09:57:00,
2013-02-06 04:02:00,57.9,34.9,30.00,NW,315,11.5,11.5,42,0.00,CLR,,0.00,WeatherDisplay:10.37,2013-02-06 10:02:00,
2013-02-06 04:07:00,57.9,36.1,30.00,NW,315,12.1,12.1,44,0.00,CLR,,0.00,WeatherDisplay:10.37,2013-02-06 10:07:00,
2013-02-06 04:12:00,57.9,36.7,30.03,NW,315,12.1,12.1,45,0.00,CLR,,0.00,WeatherDisplay:10.37,2013-02-06 10:12:00,
2013-02-06 04:17:00,57.7,36.0,30.03,NW,315,12.1,12.1,44,0.00,CLR,,0.00,WeatherDisplay:10.37,2013-02-06 10:17:00,
2013-02-06 04:22:00,57.7,36.5,30.03,NW,315,11.5,11.5,45,0.00,CLR,,0.00,WeatherDisplay:10.37,2013-02-06 10:22:00,
2013-02-06 04:27:00,57.7,36.5,30.03,NW,315,12.1,12.1,45,0.00,CLR,,0.00,WeatherDisplay:10.37,2013-02-06 10:27:00,
2013-02-06 04:32:00,57.7,36.5,30.03,NW,315,12.1,12.1,45,0.00,CLR,,0.00,WeatherDisplay:10.37,2013-02-06 10:32:00,
2013-02-06 04:37:00,57.7,37.1,30.03,NW,315,11.5,11.5,46,0.00,CLR,,0.00,WeatherDisplay:10.37,2013-02-06 10:37:00,
2013-02-06 04:42:00,57.9,38.3,30.06,NW,315,12.1,12.1,48,0.00,CLR,,0.00,WeatherDisplay:10.37,2013-02-06 10:42:00,
2013-02-06 04:47:00,57.9,40.9,30.06,NW,315,12.1,12.1,53,0.00,CLR,,0.00,WeatherDisplay:10.37,2013-02-06 10:47:00,
2013-02-06 04:52:00,57.9,41.8,30.06,NW,315,11.5,11.5,55,0.00,CLR,,0.00,WeatherDisplay:10.37,2013-02-06 10:52:00,
2013-02-06 04:57:00,57.9,42.3,30.06,NW,315,11.5,11.5,56,0.00,CLR,,0.00,WeatherDisplay:10.37,2013-02-06 10:57:00,
2013-02-06 05:02:00,57.9,42.8,30.06,NW,315,12.1,12.1,57,0.00,CLR,,0.00,WeatherDisplay:10.37,2013-02-06 11:02:00,
2013-02-06 05:07:00,57.9,43.7,30.06,NW,315,11.5,11.5,59,0.00,CLR,,0.00,WeatherDisplay:10.37,2013-02-06 11:07:00,
2013-02-06 05:12:00,57.9,44.1,30.06,NW,315,11.5,11.5,60,0.00,CLR,,0.00,WeatherDisplay:10.37,2013-02-06 11:12:00,
2013-02-06 05:17:00,57.9,43.7,30.06,NW,315,12.1,12.1,59,0.00,CLR,,0.00,WeatherDisplay:10.37,2013-02-06 11:17:00,
2013-02-06 05:22:00,57.9,42.8,30.06,NW,315,11.5,11.5,57,0.00,CLR,,0.00,WeatherDisplay:10.37,2013-02-06 11:22:00,
2013-02-06 05:27:00,57.9,42.3,30.06,NW,315,11.5,11.5,56,0.00,CLR,,0.00,WeatherDisplay:10.37,2013-02-06 11:27:00,
2013-02-06 05:32:00,57.7,41.7,30.06,NW,315,11.5,11.5,55,0.00,CLR,,0.00,WeatherDisplay:10.37,2013-02-06 11:32:00,
2013-02-06 05:37:00,57.7,40.7,30.06,NW,315,11.5,11.5,53,0.00,CLR,,0.00,WeatherDisplay:10.37,2013-02-06 11:37:00,
2013-02-06 05:42:00,57.6,40.1,30.06,NW,315,11.5,11.5,52,0.00,CLR,,0.00,WeatherDisplay:10.37,2013-02-06 11:42:00,
2013-02-06 05:47:00,57.6,39.6,30.06,NW,315,12.1,12.1,51,0.00,CLR,,0.00,WeatherDisplay:10.37,2013-02-06 11:47:00,
2013-02-06 05:52:00,57.6,39.0,30.06,NW,315,11.5,11.5,50,0.00,CLR,,0.00,WeatherDisplay:10.37,2013-02-06 11:52:00,
2013-02-06 05:57:00,57.4,38.9,30.06,NW,315,12.1,12.1,50,0.00,CLR,,0.00,WeatherDisplay:10.37,2013-02-06 11:57:00,
2013-02-06 06:02:00,57.4,39.4,30.06,NW,315,12.1,12.1,51,0.00,CLR,,0.00,WeatherDisplay:10.37,2013-02-06 12:02:00,
2013-02-06 06:07:00,57.4,39.4,30.06,NW,315,11.5,11.5,51,0.00,CLR,,0.00,WeatherDisplay:10.37,2013-02-06 12:07:00,
2013-02-06 06:12:00,57.2,39.2,30.06,NW,315,11.5,11.5,51,0.00,CLR,,0.00,WeatherDisplay:10.37,2013-02-06 12:12:00,
2013-02-06 06:18:00,57.2,40.2,30.06,NW,315,12.1,12.1,53,0.00,CLR,,0.00,WeatherDisplay:10.37,2013-02-06 12:18:00,
2013-02-06 06:23:00,57.2,41.2,30.06,NW,315,11.5,11.5,55,0.00,CLR,,0.00,WeatherDisplay:10.37,2013-02-06 12:23:00,
2013-02-06 06:28:00,57.2,41.2,30.09,NW,315,12.1,12.1,55,0.00,CLR,,0.00,WeatherDisplay:10.37,2013-02-06 12:28:00,
2013-02-06 06:33:00,57.2,41.2,30.09,NW,315,12.1,12.1,55,0.00,CLR,,0.00,WeatherDisplay:10.37,2013-02-06 12:33:00,
2013-02-06 06:38:00,57.2,43.0,30.09,NW,315,11.5,11.5,59,0.00,CLR,,0.00,WeatherDisplay:10.37,2013-02-06 12:38:00,
2013-02-06 06:43:00,57.2,43.9,30.09,NW,315,11.5,11.5,61,0.00,CLR,,0.00,WeatherDisplay:10.37,2013-02-06 12:43:00,
2013-02-06 06:48:00,57.4,44.5,30.09,NW,315,12.1,12.1,62,0.00,CLR,,0.00,WeatherDisplay:10.37,2013-02-06 12:48:00,
2013-02-06 06:53:00,57.4,45.3,30.09,NW,315,12.1,12.1,64,0.00,CLR,,0.00,WeatherDisplay:10.37,2013-02-06 12:53:00,
2013-02-06 06:58:00,57.4,45.3,30.09,NW,315,11.5,11.5,64,0.00,CLR,,0.00,WeatherDisplay:10.37,2013-02-06 12:58:00,
2013-02-06 07:03:00,57.4,45.7,30.09,NW,315,11.5,11.5,65,0.00,CLR,,0.00,WeatherDisplay:10.37,2013-02-06 13:03:00,
2013-02-06 07:08:00,57.4,46.9,30.09,NW,315,12.1,12.1,68,0.00,CLR,,0.00,WeatherDisplay:10.37,2013-02-06 13:08:00,
2013-02-06 07:13:00,57.4,47.3,30.09,NW,315,11.5,11.5,69,0.00,CLR,,0.00,WeatherDisplay:10.37,2013-02-06 13:13:00,
2013-02-06 07:18:00,57.4,47.7,30.09,NW,315,11.5,11.5,70,0.00,CLR,,0.00,WeatherDisplay:10.37,2013-02-06 13:18:00,
2013-02-06 07:23:00,57.4,48.1,30.09,NW,315,12.1,12.1,71,0.00,CLR,,0.00,WeatherDisplay:10.37,2013-02-06 13:23:00,
2013-02-06 07:28:00,57.6,48.6,30.09,NW,315,12.1,12.1,72,0.00,CLR,,0.00,WeatherDisplay:10.37,2013-02-06 13:28:00,
2013-02-06 07:33:00,57.6,49.3,30.09,NW,315,11.5,11.5,74,0.00,CLR,,0.00,WeatherDisplay:10.37,2013-02-06 13:33:00,
2013-02-06 07:38:00,57.7,50.6,30.09,NW,315,11.5,11.5,77,0.00,CLR,,0.00,WeatherDisplay:10.37,2013-02-06 13:38:00,
2013-02-06 07:43:00,57.9,51.1,30.06,NW,315,12.1,12.1,78,0.00,CLR,,0.00,WeatherDisplay:10.37,2013-02-06 13:43:00,
2013-02-06 07:48:00,57.9,51.8,30.06,NW,315,12.1,12.1,80,0.00,CLR,,0.00,WeatherDisplay:10.37,2013-02-06 13:48:00,
2013-02-06 07:53:00,58.1,52.0,30.06,NW,315,11.5,11.5,80,0.00,CLR,,0.00,WeatherDisplay:10.37,2013-02-06 13:53:00,
2013-02-06 07:58:00,58.1,52.0,30.06,NW,315,12.1,12.1,80,0.00,CLR,,0.00,WeatherDisplay:10.37,2013-02-06 13:58:00,
2013-02-06 08:03:00,58.3,52.1,30.06,NW,315,12.1,12.1,80,0.00,CLR,,0.00,WeatherDisplay:10.37,2013-02-06 14:03:00,
2013-02-06 08:08:00,58.5,52.3,30.06,NW,315,11.5,11.5,80,0.00,CLR,,0.00,WeatherDisplay:10.37,2013-02-06 14:08:00,
2013-02-06 08:13:00,58.5,52.3,30.06,NW,315,11.5,11.5,80,0.00,CLR,,0.00,WeatherDisplay:10.37,2013-02-06 14:13:00,
2013-02-06 08:18:00,58.6,52.5,30.06,NW,315,12.1,12.1,80,0.00,CLR,,0.00,WeatherDisplay:10.37,2013-02-06 14:18:00,
2013-02-06 08:23:00,58.8,52.7,30.06,NW,315,11.5,11.5,80,0.00,CLR,,0.00,WeatherDisplay:10.37,2013-02-06 14:23:00,
2013-02-06 08:28:00,58.8,52.3,30.06,NW,315,11.5,11.5,79,0.00,CLR,,0.00,WeatherDisplay:10.37,2013-02-06 14:28:00,
2013-02-06 08:33:00,59.0,51.8,30.06,NW,315,12.1,12.1,77,0.00,CLR,,0.00,WeatherDisplay:10.37,2013-02-06 14:33:00,
2013-02-06 08:38:00,59.2,51.3,30.06,NW,315,11.5,11.5,75,0.00,CLR,,0.00,WeatherDisplay:10.37,2013-02-06 14:38:00,
2013-02-06 08:43:00,59.4,51.1,30.06,NW,315,11.5,11.5,74,0.00,CLR,,0.00,WeatherDisplay:10.37,2013-02-06 14:43:00,
2013-02-06 08:48:00,59.4,50.7,30.06,NW,315,11.5,11.5,73,0.00,CLR,,0.00,WeatherDisplay:10.37,2013-02-06 14:48:00,
2013-02-06 08:53:00,59.4,50.3,30.06,NW,315,12.1,12.1,72,0.00,CLR,,0.00,WeatherDisplay:10.37,2013-02-06 14:53:00,
2013-02-06 08:58:00,59.5,49.4,30.09,NW,315,12.1,12.1,69,0.00,CLR,,0.00,WeatherDisplay:10.37,2013-02-06 14:58:00,
2013-02-06 09:03:00,59.7,49.9,30.09,NW,315,12.1,12.1,70,0.00,CLR,,0.00,WeatherDisplay:10.37,2013-02-06 15:03:00,
2013-02-06 09:08:00,59.9,50.5,30.09,NW,315,11.5,11.5,71,0.00,CLR,,0.00,WeatherDisplay:10.37,2013-02-06 15:08:00,
2013-02-06 09:13:00,60.1,49.9,30.09,NW,315,12.1,12.1,69,0.00,CLR,,0.00,WeatherDisplay:10.37,2013-02-06 15:13:00,
2013-02-06 09:18:00,60.3,50.4,30.09,NW,315,11.5,11.5,70,0.00,CLR,,0.00,WeatherDisplay:10.37,2013-02-06 15:18:00,
2013-02-06 09:23:00,60.6,51.5,30.09,NW,315,11.5,11.5,72,0.00,CLR,,0.00,WeatherDisplay:10.37,2013-02-06 15:23:00,
2013-02-06 09:28:00,60.8,52.5,30.09,NW,315,12.1,12.1,74,0.00,CLR,,0.00,WeatherDisplay:10.37,2013-02-06 15:28:00,
2013-02-06 09:33:00,61.0,51.9,30.09,NW,315,11.5,11.5,72,0.00,CLR,,0.00,WeatherDisplay:10.37,2013-02-06 15:33:00,
2013-02-06 09:38:00,61.2,52.1,30.09,NW,315,11.5,11.5,72,0.00,CLR,,0.00,WeatherDisplay:10.37,2013-02-06 15:38:00,
2013-02-06 09:43:00,61.3,50.7,30.09,NW,315,12.1,12.1,68,0.00,CLR,,0.00,WeatherDisplay:10.37,2013-02-06 15:43:00,
2013-02-06 09:48:00,61.3,48.6,30.09,NW,315,11.5,11.5,63,0.00,CLR,,0.00,WeatherDisplay:10.37,2013-02-06 15:48:00,
2013-02-06 09:53:00,61.5,48.4,30.09,NW,315,11.5,11.5,62,0.00,CLR,,0.00,WeatherDisplay:10.37,2013-02-06 15:53:00,
2013-02-06 09:58:00,61.7,48.1,30.09,NW,315,11.5,11.5,61,0.00,CLR,,0.00,WeatherDisplay:10.37,2013-02-06 15:58:00,
2013-02-06 10:03:00,61.9,48.7,30.09,NW,315,12.1,12.1,62,0.00,CLR,,0.00,WeatherDisplay:10.37,2013-02-06 16:03:00,
2013-02-06 10:08:00,62.6,52.3,30.09,NW,315,11.5,11.5,69,0.00,CLR,,0.00,WeatherDisplay:10.37,2013-02-06 16:08:00,
2013-02-06 10:13:00,63.0,51.0,30.09,NW,315,12.1,12.1,65,0.00,CLR,,0.00,WeatherDisplay:10.37,2013-02-06 16:13:00,
2013-02-06 10:18:00,63.1,42.6,30.09,NW,315,11.5,11.5,47,0.00,CLR,,0.00,WeatherDisplay:10.37,2013-02-06 16:18:00,
2013-02-06 10:23:00,63.1,39.0,30.09,NW,315,11.5,11.5,41,0.00,CLR,,0.00,WeatherDisplay:10.37,2013-02-06 16:23:00,
2013-02-06 10:28:00,63.0,37.6,30.06,NW,315,11.5,11.5,39,0.00,CLR,,0.00,WeatherDisplay:10.37,2013-02-06 16:28:00,
2013-02-06 10:33:00,63.0,36.9,30.06,NW,315,12.1,12.1,38,0.00,CLR,,0.00,WeatherDisplay:10.37,2013-02-06 16:33:00,
2013-02-06 10:38:00,63.0,36.3,30.06,NW,315,12.1,12.1,37,0.00,CLR,,0.00,WeatherDisplay:10.37,2013-02-06 16:38:00,
2013-02-06 10:43:00,63.0,36.3,30.09,NW,315,11.5,11.5,37,0.00,CLR,,0.00,WeatherDisplay:10.37,2013-02-06 16:43:00,
2013-02-06 10:48:00,63.1,37.1,30.09,NW,315,11.5,11.5,38,0.00,CLR,,0.00,WeatherDisplay:10.37,2013-02-06 16:48:00,
2013-02-06 10:53:00,63.1,36.4,30.09,NW,315,11.5,11.5,37,0.00,CLR,,0.00,WeatherDisplay:10.37,2013-02-06 16:53:00,
2013-02-06 10:58:00,63.5,36.7,30.09,NW,315,11.5,11.5,37,0.00,CLR,,0.00,WeatherDisplay:10.37,2013-02-06 16:58:00,
2013-02-06 11:04:00,64.2,37.4,30.09,NW,315,11.5,11.5,37,0.00,CLR,,0.00,WeatherDisplay:10.37,2013-02-06 17:04:00,
2013-02-06 11:09:00,65.5,38.5,30.09,NW,315,12.1,12.1,37,0.00,CLR,,0.00,WeatherDisplay:10.37,2013-02-06 17:09:00,
2013-02-06 11:14:00,66.4,37.1,30.06,NW,315,12.1,12.1,34,0.00,CLR,,0.00,WeatherDisplay:10.37,2013-02-06 17:14:00,
2013-02-06 11:19:00,66.4,36.4,30.06,NW,315,11.5,11.5,33,0.00,CLR,,0.00,WeatherDisplay:10.37,2013-02-06 17:19:00,
2013-02-06 11:24:00,66.4,35.6,30.06,NW,315,11.5,11.5,32,0.00,CLR,,0.00,WeatherDisplay:10.37,2013-02-06 17:24:00,
2013-02-06 11:29:00,66.2,33.0,30.06,NW,315,12.1,12.1,29,0.00,CLR,,0.00,WeatherDisplay:10.37,2013-02-06 17:29:00,
2013-02-06 11:34:00,65.8,32.7,30.06,NW,315,12.1,12.1,29,0.00,CLR,,0.00,WeatherDisplay:10.37,2013-02-06 17:34:00,
2013-02-06 11:39:00,65.8,32.7,30.06,NW,315,11.5,11.5,29,0.00,CLR,,0.00,WeatherDisplay:10.37,2013-02-06 17:39:00,
2013-02-06 11:44:00,65.8,32.7,30.06,NW,315,12.1,12.1,29,0.00,CLR,,0.00,WeatherDisplay:10.37,2013-02-06 17:44:00,
2013-02-06 11:49:00,64.9,32.7,30.06,NW,315,12.1,12.1,30,0.00,CLR,,0.00,WeatherDisplay:10.37,2013-02-06 17:49:00,
2013-02-06 11:54:00,64.8,33.4,30.06,NW,315,12.1,12.1,31,0.00,CLR,,0.00,WeatherDisplay:10.37,2013-02-06 17:54:00,
2013-02-06 11:59:00,64.8,35.0,30.06,NW,315,11.5,11.5,33,0.00,CLR,,0.00,WeatherDisplay:10.37,2013-02-06 17:59:00,
2013-02-06 12:04:00,64.8,35.0,30.06,NW,315,11.5,11.5,33,0.00,CLR,,0.00,WeatherDisplay:10.37,2013-02-06 18:04:00,
2013-02-06 12:09:00,64.9,35.1,30.06,NW,315,11.5,11.5,33,0.00,CLR,,0.00,WeatherDisplay:10.37,2013-02-06 18:09:00,
2013-02-06 12:14:00,65.3,35.4,30.03,NW,315,12.1,12.1,33,0.00,CLR,,0.00,WeatherDisplay:10.37,2013-02-06 18:14:00,
2013-02-06 12:19:00,65.5,35.6,30.03,NW,315,12.1,12.1,33,0.00,CLR,,0.00,WeatherDisplay:10.37,2013-02-06 18:19:00,
2013-02-06 12:24:00,64.9,35.1,30.03,NW,315,11.5,11.5,33,0.00,CLR,,0.00,WeatherDisplay:10.37,2013-02-06 18:24:00,
2013-02-06 12:29:00,64.8,35.0,30.03,NW,315,12.1,12.1,33,0.00,CLR,,0.00,WeatherDisplay:10.37,2013-02-06 18:29:00,
2013-02-06 12:34:00,64.8,35.0,30.03,NW,315,11.5,11.5,33,0.00,CLR,,0.00,WeatherDisplay:10.37,2013-02-06 18:34:00,
2013-02-06 12:39:00,64.8,35.0,30.03,NW,315,11.5,11.5,33,0.00,CLR,,0.00,WeatherDisplay:10.37,2013-02-06 18:39:00,
2013-02-06 12:44:00,64.8,35.0,30.03,NW,315,11.5,11.5,33,0.00,CLR,,0.00,WeatherDisplay:10.37,2013-02-06 18:44:00,
2013-02-06 12:49:00,64.8,35.0,30.03,NW,315,11.5,11.5,33,0.00,CLR,,0.00,WeatherDisplay:10.37,2013-02-06 18:49:00,
2013-02-06 12:54:00,64.8,35.0,30.03,NW,315,12.1,12.1,33,0.00,CLR,,0.00,WeatherDisplay:10.37,2013-02-06 18:54:00,
2013-02-06 12:59:00,64.8,35.0,30.03,NW,315,11.5,11.5,33,0.00,CLR,,0.00,WeatherDisplay:10.37,2013-02-06 18:59:00,
2013-02-06 13:04:00,64.8,35.0,30.03,NW,315,12.1,12.1,33,0.00,CLR,,0.00,WeatherDisplay:10.37,2013-02-06 19:04:00,
2013-02-06 13:09:00,64.8,35.0,30.03,NW,315,12.1,12.1,33,0.00,CLR,,0.00,WeatherDisplay:10.37,2013-02-06 19:09:00,
2013-02-06 13:14:00,64.8,35.0,30.00,NW,315,11.5,11.5,33,0.00,CLR,,0.00,WeatherDisplay:10.37,2013-02-06 19:14:00,
2013-02-06 13:19:00,66.6,33.3,30.00,NW,315,12.1,12.1,29,0.00,CLR,,0.00,WeatherDisplay:10.37,2013-02-06 19:19:00,
2013-02-06 13:24:00,66.6,33.3,30.00,NW,315,12.1,12.1,29,0.00,CLR,,0.00,WeatherDisplay:10.37,2013-02-06 19:24:00,
2013-02-06 13:29:00,66.6,33.3,29.97,NW,315,11.5,11.5,29,0.00,CLR,,0.00,WeatherDisplay:10.37,2013-02-06 19:29:00,
2013-02-06 13:34:00,66.4,33.1,29.97,NW,315,11.5,11.5,29,0.00,CLR,,0.00,WeatherDisplay:10.37,2013-02-06 19:34:00,
2013-02-06 13:39:00,66.4,33.1,29.97,NW,315,12.1,12.1,29,0.00,CLR,,0.00,WeatherDisplay:10.37,2013-02-06 19:39:00,
2013-02-06 13:44:00,66.4,33.1,29.94,NW,315,12.1,12.1,29,0.00,CLR,,0.00,WeatherDisplay:10.37,2013-02-06 19:44:00,
2013-02-06 13:49:00,66.2,33.0,29.94,NW,315,11.5,11.5,29,0.00,CLR,,0.00,WeatherDisplay:10.37,2013-02-06 19:49:00,
2013-02-06 13:54:00,66.0,32.0,29.94,NW,315,12.1,12.1,28,0.00,CLR,,0.00,WeatherDisplay:10.37,2013-02-06 19:54:00,
2013-02-06 13:59:00,66.0,32.0,29.97,NW,315,11.5,11.5,28,0.00,CLR,,0.00,WeatherDisplay:10.37,2013-02-06 19:59:00,
2013-02-06 14:04:00,66.0,32.0,29.97,NW,315,11.5,11.5,28,0.00,CLR,,0.00,WeatherDisplay:10.37,2013-02-06 20:04:00,
2013-02-06 14:09:00,66.0,32.0,29.97,NW,315,11.5,11.5,28,0.00,CLR,,0.00,WeatherDisplay:10.37,2013-02-06 20:09:00,
2013-02-06 14:14:00,66.0,32.0,29.94,NW,315,12.1,12.1,28,0.00,CLR,,0.00,WeatherDisplay:10.37,2013-02-06 20:14:00,
2013-02-06 14:19:00,66.0,32.0,29.94,NW,315,12.1,12.1,28,0.00,CLR,,0.00,WeatherDisplay:10.37,2013-02-06 20:19:00,
2013-02-06 14:25:00,66.0,32.0,29.94,NW,315,11.5,11.5,28,0.00,CLR,,0.00,WeatherDisplay:10.37,2013-02-06 20:25:00,
2013-02-06 14:30:00,66.0,32.0,29.97,NW,315,12.1,12.1,28,0.00,CLR,,0.00,WeatherDisplay:10.37,2013-02-06 20:30:00,
2013-02-06 14:35:00,66.0,32.0,29.97,NW,315,12.1,12.1,28,0.00,CLR,,0.00,WeatherDisplay:10.37,2013-02-06 20:35:00,
2013-02-06 14:40:00,66.0,32.0,29.97,NW,315,11.5,11.5,28,0.00,CLR,,0.00,WeatherDisplay:10.37,2013-02-06 20:40:00,
2013-02-06 14:45:00,66.0,32.0,30.00,NW,315,11.5,11.5,28,0.00,CLR,,0.00,WeatherDisplay:10.37,2013-02-06 20:45:00,
2013-02-06 14:50:00,66.0,32.0,30.00,NW,315,11.5,11.5,28,0.00,CLR,,0.00,WeatherDisplay:10.37,2013-02-06 20:50:00,
2013-02-06 14:55:00,66.0,32.0,30.00,NW,315,12.1,12.1,28,0.00,CLR,,0.00,WeatherDisplay:10.37,2013-02-06 20:55:00,
2013-02-06 15:00:00,66.0,32.0,30.00,NW,315,11.5,11.5,28,0.00,CLR,,0.00,WeatherDisplay:10.37,2013-02-06 21:00:00,
2013-02-06 15:05:00,66.0,32.0,30.00,NW,315,11.5,11.5,28,0.00,CLR,,0.00,WeatherDisplay:10.37,2013-02-06 21:05:00,
2013-02-06 15:10:00,66.0,32.0,30.00,NW,315,11.5,11.5,28,0.00,CLR,,0.00,WeatherDisplay:10.37,2013-02-06 21:10:00,
2013-02-06 15:15:00,66.0,32.0,29.97,NW,315,11.5,11.5,28,0.00,CLR,,0.00,WeatherDisplay:10.37,2013-02-06 21:15:00,
2013-02-06 15:20:00,66.0,32.0,29.97,NW,315,11.5,11.5,28,0.00,CLR,,0.00,WeatherDisplay:10.37,2013-02-06 21:20:00,
2013-02-06 15:25:00,66.0,32.0,29.97,NW,315,12.1,12.1,28,0.00,CLR,,0.00,WeatherDisplay:10.37,2013-02-06 21:25:00,
2013-02-06 15:30:00,66.0,32.0,30.00,NW,315,11.5,11.5,28,0.00,CLR,,0.00,WeatherDisplay:10.37,2013-02-06 21:30:00,
2013-02-06 15:35:00,66.0,32.0,30.00,NW,315,11.5,11.5,28,0.00,CLR,,0.00,WeatherDisplay:10.37,2013-02-06 21:35:00,
2013-02-06 15:40:00,66.0,32.0,30.00,NW,315,12.1,12.1,28,0.00,CLR,,0.00,WeatherDisplay:10.37,2013-02-06 21:40:00,
2013-02-06 15:45:00,64.2,35.2,29.97,NW,315,11.5,11.5,34,0.00,CLR,,0.00,WeatherDisplay:10.37,2013-02-06 21:45:00,
2013-02-06 15:50:00,63.9,34.9,29.97,NW,315,11.5,11.5,34,0.00,CLR,,0.00,WeatherDisplay:10.37,2013-02-06 21:50:00,
2013-02-06 15:55:00,63.9,34.9,29.97,NW,315,12.1,12.1,34,0.00,CLR,,0.00,WeatherDisplay:10.37,2013-02-06 21:55:00,
2013-02-06 16:00:00,63.9,35.7,29.97,NW,315,12.1,12.1,35,0.00,CLR,,0.00,WeatherDisplay:10.37,2013-02-06 22:00:00,
2013-02-06 16:05:00,63.9,35.7,29.97,NW,315,11.5,11.5,35,0.00,CLR,,0.00,WeatherDisplay:10.37,2013-02-06 22:05:00,
2013-02-06 16:10:00,63.9,35.7,29.97,NW,315,12.1,12.1,35,0.00,CLR,,0.00,WeatherDisplay:10.37,2013-02-06 22:10:00,
2013-02-06 16:15:00,63.9,35.7,29.94,NW,315,11.5,11.5,35,0.00,CLR,,0.00,WeatherDisplay:10.37,2013-02-06 22:15:00,
2013-02-06 16:20:00,63.9,35.7,29.94,NW,315,11.5,11.5,35,0.00,CLR,,0.00,WeatherDisplay:10.37,2013-02-06 22:20:00,
2013-02-06 16:25:00,63.9,35.7,29.94,NW,315,11.5,11.5,35,0.00,CLR,,0.00,WeatherDisplay:10.37,2013-02-06 22:25:00,
2013-02-06 16:30:00,63.9,35.7,29.97,NW,315,12.1,12.1,35,0.00,CLR,,0.00,WeatherDisplay:10.37,2013-02-06 22:30:00,
2013-02-06 16:35:00,63.9,35.7,29.97,NW,315,12.1,12.1,35,0.00,CLR,,0.00,WeatherDisplay:10.37,2013-02-06 22:35:00,
2013-02-06 16:40:00,63.9,35.7,29.97,NW,315,11.5,11.5,35,0.00,CLR,,0.00,WeatherDisplay:10.37,2013-02-06 22:40:00,
2013-02-06 16:45:00,63.9,35.7,29.97,NW,315,11.5,11.5,35,0.00,CLR,,0.00,WeatherDisplay:10.37,2013-02-06 22:45:00,
2013-02-06 16:50:00,63.9,35.7,29.97,NW,315,12.1,12.1,35,0.00,CLR,,0.00,WeatherDisplay:10.37,2013-02-06 22:50:00,
2013-02-06 16:55:00,63.9,35.7,29.97,NW,315,12.1,12.1,35,0.00,CLR,,0.00,WeatherDisplay:10.37,2013-02-06 22:55:00,
2013-02-06 17:00:00,63.1,37.1,29.97,NW,315,12.1,12.1,38,0.00,CLR,,0.00,WeatherDisplay:10.37,2013-02-06 23:00:00,
2013-02-06 17:05:00,63.1,37.1,29.97,NW,315,11.5,11.5,38,0.00,CLR,,0.00,WeatherDisplay:10.37,2013-02-06 23:05:00,
2013-02-06 17:10:00,63.1,37.1,29.97,NW,315,12.1,12.1,38,0.00,CLR,,0.00,WeatherDisplay:10.37,2013-02-06 23:10:00,
2013-02-06 17:15:00,63.1,37.1,29.97,NW,315,12.1,12.1,38,0.00,CLR,,0.00,WeatherDisplay:10.37,2013-02-06 23:15:00,
2013-02-06 17:20:00,63.1,37.1,29.97,NW,315,11.5,11.5,38,0.00,CLR,,0.00,WeatherDisplay:10.37,2013-02-06 23:20:00,
2013-02-06 17:25:00,63.1,37.1,29.97,NW,315,12.1,12.1,38,0.00,CLR,,0.00,WeatherDisplay:10.37,2013-02-06 23:25:00,
2013-02-06 17:30:00,63.1,37.1,29.97,NW,315,11.5,11.5,38,0.00,CLR,,0.00,WeatherDisplay:10.37,2013-02-06 23:30:00,
2013-02-06 17:35:00,63.1,37.1,29.97,NW,315,11.5,11.5,38,0.00,CLR,,0.00,WeatherDisplay:10.37,2013-02-06 23:35:00,
2013-02-06 17:40:00,63.1,37.1,29.97,NW,315,12.1,12.1,38,0.00,CLR,,0.00,WeatherDisplay:10.37,2013-02-06 23:40:00,
2013-02-06 17:45:00,63.1,37.1,29.97,NW,315,11.5,11.5,38,0.00,CLR,,0.00,WeatherDisplay:10.37,2013-02-06 23:45:00,
2013-02-06 17:50:00,63.0,44.0,29.97,NW,315,11.5,11.5,50,0.00,CLR,,0.00,WeatherDisplay:10.37,2013-02-06 23:50:00,
2013-02-06 17:55:00,63.0,45.1,29.94,NW,315,11.5,11.5,52,0.00,CLR,,0.00,WeatherDisplay:10.37,2013-02-06 23:55:00,
2013-02-06 18:00:00,63.0,45.6,29.94,NW,315,12.1,12.1,53,0.00,CLR,,0.00,WeatherDisplay:10.37,2013-02-07 00:00:00,
2013-02-06 18:05:00,63.0,47.5,29.94,NW,315,12.1,12.1,57,0.00,CLR,,0.00,WeatherDisplay:10.37,2013-02-07 00:05:00,
2013-02-06 18:10:00,63.0,49.3,29.94,NW,315,12.1,12.1,61,0.00,CLR,,0.00,WeatherDisplay:10.37,2013-02-07 00:10:00,
2013-02-06 18:15:00,63.0,51.0,29.94,NW,315,11.5,11.5,65,0.00,CLR,,0.00,WeatherDisplay:10.37,2013-02-07 00:15:00,
2013-02-06 18:20:00,63.0,51.4,29.94,NW,315,11.5,11.5,66,0.00,CLR,,0.00,WeatherDisplay:10.37,2013-02-07 00:20:00,
2013-02-06 18:25:00,63.0,51.4,29.91,NW,315,11.5,11.5,66,0.00,CLR,,0.00,WeatherDisplay:10.37,2013-02-07 00:25:00,
2013-02-06 18:30:00,63.0,51.4,29.91,NW,315,12.1,12.1,66,0.00,CLR,,0.00,WeatherDisplay:10.37,2013-02-07 00:30:00,
2013-02-06 18:35:00,63.0,51.4,29.91,NW,315,12.1,12.1,66,0.00,CLR,,0.00,WeatherDisplay:10.37,2013-02-07 00:35:00,
2013-02-06 18:40:00,62.8,50.0,29.91,NW,315,11.5,11.5,63,0.00,CLR,,0.00,WeatherDisplay:10.37,2013-02-07 00:40:00,
2013-02-06 18:45:00,62.8,50.0,29.91,NW,315,12.1,12.1,63,0.00,CLR,,0.00,WeatherDisplay:10.37,2013-02-07 00:45:00,
2013-02-06 18:50:00,62.8,50.0,29.91,NW,315,11.5,11.5,63,0.00,CLR,,0.00,WeatherDisplay:10.37,2013-02-07 00:50:00,
2013-02-06 18:55:00,62.8,48.2,29.91,NW,315,11.5,11.5,59,0.00,CLR,,0.00,WeatherDisplay:10.37,2013-02-07 00:55:00,
2013-02-06 19:00:00,62.8,48.2,29.91,NW,315,11.5,11.5,59,0.00,CLR,,0.00,WeatherDisplay:10.37,2013-02-07 01:00:00,
2013-02-06 19:05:00,62.8,48.2,29.91,NW,315,11.5,11.5,59,0.00,CLR,,0.00,WeatherDisplay:10.37,2013-02-07 01:05:00,
2013-02-06 19:10:00,62.8,48.2,29.91,NW,315,11.5,11.5,59,0.00,CLR,,0.00,WeatherDisplay:10.37,2013-02-07 01:10:00,
2013-02-06 19:15:00,62.8,48.2,29.91,NW,315,11.5,11.5,59,0.00,CLR,,0.00,WeatherDisplay:10.37,2013-02-07 01:15:00,
2013-02-06 19:20:00,62.8,48.2,29.91,NW,315,11.5,11.5,59,0.00,CLR,,0.00,WeatherDisplay:10.37,2013-02-07 01:20:00,
2013-02-06 19:25:00,62.8,48.2,29.91,NW,315,12.1,12.1,59,0.00,CLR,,0.00,WeatherDisplay:10.37,2013-02-07 01:25:00,
2013-02-06 19:30:00,62.8,48.2,29.91,NW,315,11.5,11.5,59,0.00,CLR,,0.00,WeatherDisplay:10.37,2013-02-07 01:30:00,
2013-02-06 19:35:00,62.8,48.2,29.91,NW,315,11.5,11.5,59,0.00,CLR,,0.00,WeatherDisplay:10.37,2013-02-07 01:35:00,
2013-02-06 19:40:00,62.8,48.2,29.91,NW,315,12.1,12.1,59,0.00,CLR,,0.00,WeatherDisplay:10.37,2013-02-07 01:40:00,
2013-02-06 19:45:00,62.8,48.2,29.91,NW,315,11.5,11.5,59,0.00,CLR,,0.00,WeatherDisplay:10.37,2013-02-07 01:45:00,
2013-02-06 19:50:00,62.8,48.2,29.91,NW,315,12.1,12.1,59,0.00,CLR,,0.00,WeatherDisplay:10.37,2013-02-07 01:50:00,
2013-02-06 19:56:00,62.8,48.2,29.91,NW,315,12.1,12.1,59,0.00,CLR,,0.00,WeatherDisplay:10.37,2013-02-07 01:56:00,
2013-02-06 20:01:00,62.8,48.2,29.91,NW,315,11.5,11.5,59,0.00,CLR,,0.00,WeatherDisplay:10.37,2013-02-07 02:01:00,
2013-02-06 20:06:00,62.8,48.2,29.91,NW,315,12.1,12.1,59,0.00,CLR,,0.00,WeatherDisplay:10.37,2013-02-07 02:06:00,
2013-02-06 20:11:00,62.8,48.2,29.88,NW,315,11.5,11.5,59,0.00,CLR,,0.00,WeatherDisplay:10.37,2013-02-07 02:11:00,
2013-02-06 20:16:00,62.8,48.2,29.88,NW,315,11.5,11.5,59,0.00,CLR,,0.00,WeatherDisplay:10.37,2013-02-07 02:16:00,
2013-02-06 20:21:00,62.8,48.2,29.88,NW,315,12.1,12.1,59,0.00,CLR,,0.00,WeatherDisplay:10.37,2013-02-07 02:21:00,
2013-02-06 20:26:00,62.8,48.2,29.94,NW,315,12.1,12.1,59,0.00,CLR,,0.00,WeatherDisplay:10.37,2013-02-07 02:26:00,
2013-02-06 20:31:00,62.8,48.2,29.94,NW,315,11.5,11.5,59,0.00,CLR,,0.00,WeatherDisplay:10.37,2013-02-07 02:31:00,
2013-02-06 20:36:00,62.8,48.2,29.94,NW,315,12.1,12.1,59,0.00,CLR,,0.00,WeatherDisplay:10.37,2013-02-07 02:36:00,
2013-02-06 20:41:00,62.8,48.2,29.94,NW,315,11.5,11.5,59,0.00,CLR,,0.00,WeatherDisplay:10.37,2013-02-07 02:41:00,
2013-02-06 20:46:00,62.8,48.2,29.94,NW,315,11.5,11.5,59,0.00,CLR,,0.00,WeatherDisplay:10.37,2013-02-07 02:46:00,
2013-02-06 20:51:00,62.8,48.2,29.94,NW,315,11.5,11.5,59,0.00,CLR,,0.00,WeatherDisplay:10.37,2013-02-07 02:51:00,
2013-02-06 20:56:00,62.8,48.2,29.94,NW,315,11.5,11.5,59,0.00,CLR,,0.00,WeatherDisplay:10.37,2013-02-07 02:56:00,
2013-02-06 21:01:00,62.8,48.2,29.94,NW,315,12.1,12.1,59,0.00,CLR,,0.00,WeatherDisplay:10.37,2013-02-07 03:01:00,
2013-02-06 21:06:00,62.8,48.2,29.94,NW,315,12.1,12.1,59,0.00,CLR,,0.00,WeatherDisplay:10.37,2013-02-07 03:06:00,
2013-02-06 21:11:00,62.8,48.2,29.94,NW,315,11.5,11.5,59,0.00,CLR,,0.00,WeatherDisplay:10.37,2013-02-07 03:11:00,
2013-02-06 21:16:00,62.8,48.2,29.94,NW,315,11.5,11.5,59,0.00,CLR,,0.00,WeatherDisplay:10.37,2013-02-07 03:16:00,
2013-02-06 21:21:00,62.8,48.2,29.94,NW,315,11.5,11.5,59,0.00,CLR,,0.00,WeatherDisplay:10.37,2013-02-07 03:21:00,
2013-02-06 21:26:00,61.9,39.7,29.91,NW,315,11.5,11.5,44,0.00,CLR,,0.00,WeatherDisplay:10.37,2013-02-07 03:26:00,
2013-02-06 21:31:00,61.7,39.6,29.91,NW,315,11.5,11.5,44,0.00,CLR,,0.00,WeatherDisplay:10.37,2013-02-07 03:31:00,
2013-02-06 21:36:00,61.7,39.0,29.91,NW,315,11.5,11.5,43,0.00,CLR,,0.00,WeatherDisplay:10.37,2013-02-07 03:36:00,
2013-02-06 21:41:00,61.7,38.4,29.91,NW,315,11.5,11.5,42,0.00,CLR,,0.00,WeatherDisplay:10.37,2013-02-07 03:41:00,
2013-02-06 21:46:00,61.5,36.3,29.91,NW,315,12.1,12.1,39,0.00,CLR,,0.00,WeatherDisplay:10.37,2013-02-07 03:46:00,
2013-02-06 21:51:00,61.3,36.2,29.91,NW,315,12.1,12.1,39,0.00,CLR,,0.00,WeatherDisplay:10.37,2013-02-07 03:51:00,
2013-02-06 21:56:00,61.3,35.5,29.91,NW,315,11.5,11.5,38,0.00,CLR,,0.00,WeatherDisplay:10.37,2013-02-07 03:56:00,
2013-02-06 22:01:00,61.3,35.5,29.91,NW,315,12.1,12.1,38,0.00,CLR,,0.00,WeatherDisplay:10.37,2013-02-07 04:01:00,
2013-02-06 22:06:00,61.2,35.3,29.91,NW,315,11.5,11.5,38,0.00,CLR,,0.00,WeatherDisplay:10.37,2013-02-07 04:06:00,
2013-02-06 22:11:00,61.3,34.8,29.91,NW,315,11.5,11.5,37,0.00,CLR,,0.00,WeatherDisplay:10.37,2013-02-07 04:11:00,
2013-02-06 22:16:00,61.2,35.3,29.91,NW,315,11.5,11.5,38,0.00,CLR,,0.00,WeatherDisplay:10.37,2013-02-07 04:16:00,
2013-02-06 22:21:00,61.2,35.3,29.91,NW,315,11.5,11.5,38,0.00,CLR,,0.00,WeatherDisplay:10.37,2013-02-07 04:21:00,
2013-02-06 22:26:00,61.2,35.3,29.91,NW,315,11.5,11.5,38,0.00,CLR,,0.00,WeatherDisplay:10.37,2013-02-07 04:26:00,
2013-02-06 22:31:00,61.0,35.2,29.91,NW,315,12.1,12.1,38,0.00,CLR,,0.00,WeatherDisplay:10.37,2013-02-07 04:31:00,
2013-02-06 22:36:00,61.0,34.5,29.91,NW,315,11.5,11.5,37,0.00,CLR,,0.00,WeatherDisplay:10.37,2013-02-07 04:36:00,
2013-02-06 22:41:00,61.0,34.5,29.91,NW,315,11.5,11.5,37,0.00,CLR,,0.00,WeatherDisplay:10.37,2013-02-07 04:41:00,
2013-02-06 22:46:00,60.8,34.3,29.91,NW,315,12.1,12.1,37,0.00,CLR,,0.00,WeatherDisplay:10.37,2013-02-07 04:46:00,
2013-02-06 22:51:00,60.6,34.2,29.91,NW,315,11.5,11.5,37,0.00,CLR,,0.00,WeatherDisplay:10.37,2013-02-07 04:51:00,
2013-02-06 22:56:00,60.6,34.2,29.91,NW,315,12.1,12.1,37,0.00,CLR,,0.00,WeatherDisplay:10.37,2013-02-07 04:56:00,
2013-02-06 23:00:00,60.4,34.0,29.91,NW,315,12.1,12.1,37,0.00,CLR,,0.00,WeatherDisplay:10.37,2013-02-07 05:00:00,
2013-02-06 23:01:00,60.4,34.0,29.91,NW,315,12.1,12.1,37,0.00,CLR,,0.00,WeatherDisplay:10.37,2013-02-07 05:01:00,
2013-02-06 23:06:00,60.4,34.7,29.91,NW,315,11.5,11.5,38,0.00,CLR,,0.00,WeatherDisplay:10.37,2013-02-07 05:06:00,
2013-02-06 23:11:00,60.4,34.7,29.91,NW,315,11.5,11.5,38,0.00,CLR,,0.00,WeatherDisplay:10.37,2013-02-07 05:11:00,
2013-02-06 23:16:00,60.4,34.7,29.91,NW,315,12.1,12.1,38,0.00,CLR,,0.00,WeatherDisplay:10.37,2013-02-07 05:16:00,
2013-02-06 23:21:00,60.3,34.5,29.91,NW,315,12.1,12.1,38,0.00,CLR,,0.00,WeatherDisplay:10.37,2013-02-07 05:21:00,
2013-02-06 23:26:00,60.3,34.5,29.91,NW,315,12.1,12.1,38,0.00,CLR,,0.00,WeatherDisplay:10.37,2013-02-07 05:26:00,
2013-02-06 23:31:00,60.3,34.5,29.91,NW,315,11.5,11.5,38,0.00,CLR,,0.00,WeatherDisplay:10.37,2013-02-07 05:31:00,
2013-02-06 23:36:00,60.1,34.4,29.91,NW,315,12.1,12.1,38,0.00,CLR,,0.00,WeatherDisplay:10.37,2013-02-07 05:36:00,
2013-02-06 23:41:00,59.9,34.2,29.91,NW,315,11.5,11.5,38,0.00,CLR,,0.00,WeatherDisplay:10.37,2013-02-07 05:41:00,
2013-02-06 23:46:00,59.9,33.5,29.91,NW,315,11.5,11.5,37,0.00,CLR,,0.00,WeatherDisplay:10.37,2013-02-07 05:46:00,
2013-02-06 23:51:00,59.9,33.5,29.91,NW,315,11.5,11.5,37,0.00,CLR,,0.00,WeatherDisplay:10.37,2013-02-07 05:51:00,
2013-02-06 23:56:00,59.7,33.4,29.91,NW,315,11.5,11.5,37,0.00,CLR,,0.00,WeatherDisplay:10.37,2013-02-07 05:56:00,